sensor_id;sensor_type;location;lat;lon;timestamp;P1;durP1;ratioP1;P2;durP2;ratioP2
78443;SDS011;67739;52.986;8.894;2023-05-10T00:01:15;0.73;;;0.22;;
78443;SDS011;67739;52.986;8.894;2023-05-10T00:03:41;0.85;;;0.30;;
78443;SDS011;67739;52.986;8.894;2023-05-10T00:06:06;2.20;;;0.52;;
78443;SDS011;67739;52.986;8.894;2023-05-10T00:08:31;2.88;;;0.63;;
78443;SDS011;67739;52.986;8.894;2023-05-10T00:10:57;1.40;;;0.32;;
78443;SDS011;67739;52.986;8.894;2023-05-10T00:13:22;1.42;;;0.50;;
78443;SDS011;67739;52.986;8.894;2023-05-10T00:15:47;1.13;;;0.20;;
78443;SDS011;67739;52.986;8.894;2023-05-10T00:18:13;2.10;;;0.75;;
78443;SDS011;67739;52.986;8.894;2023-05-10T00:20:38;2.03;;;0.50;;
78443;SDS011;67739;52.986;8.894;2023-05-10T00:23:03;1.25;;;0.55;;
78443;SDS011;67739;52.986;8.894;2023-05-10T00:25:29;1.52;;;0.43;;
78443;SDS011;67739;52.986;8.894;2023-05-10T00:27:54;1.80;;;0.28;;
78443;SDS011;67739;52.986;8.894;2023-05-10T00:30:22;2.55;;;0.57;;
78443;SDS011;67739;52.986;8.894;2023-05-10T00:32:48;0.85;;;0.28;;
78443;SDS011;67739;52.986;8.894;2023-05-10T00:35:14;2.20;;;0.60;;
78443;SDS011;67739;52.986;8.894;2023-05-10T00:37:40;2.80;;;0.50;;
78443;SDS011;67739;52.986;8.894;2023-05-10T00:40:06;2.03;;;0.60;;
78443;SDS011;67739;52.986;8.894;2023-05-10T00:42:32;1.63;;;0.47;;
78443;SDS011;67739;52.986;8.894;2023-05-10T00:44:57;2.05;;;0.75;;
78443;SDS011;67739;52.986;8.894;2023-05-10T00:47:23;2.97;;;0.40;;
78443;SDS011;67739;52.986;8.894;2023-05-10T00:49:48;0.82;;;0.22;;
78443;SDS011;67739;52.986;8.894;2023-05-10T00:52:14;1.45;;;0.52;;
78443;SDS011;67739;52.986;8.894;2023-05-10T00:54:40;2.15;;;0.50;;
78443;SDS011;67739;52.986;8.894;2023-05-10T00:57:06;2.20;;;0.43;;
78443;SDS011;67739;52.986;8.894;2023-05-10T00:59:31;2.15;;;0.57;;
78443;SDS011;67739;52.986;8.894;2023-05-10T01:01:57;1.35;;;0.30;;
78443;SDS011;67739;52.986;8.894;2023-05-10T01:04:23;1.48;;;0.35;;
78443;SDS011;67739;52.986;8.894;2023-05-10T01:06:50;3.80;;;0.85;;
78443;SDS011;67739;52.986;8.894;2023-05-10T01:09:16;1.23;;;0.38;;
78443;SDS011;67739;52.986;8.894;2023-05-10T01:11:43;0.93;;;0.35;;
78443;SDS011;67739;52.986;8.894;2023-05-10T01:14:08;2.97;;;0.43;;
78443;SDS011;67739;52.986;8.894;2023-05-10T01:16:36;1.98;;;0.77;;
78443;SDS011;67739;52.986;8.894;2023-05-10T01:19:06;1.17;;;0.40;;
78443;SDS011;67739;52.986;8.894;2023-05-10T01:21:48;1.15;;;0.38;;
78443;SDS011;67739;52.986;8.894;2023-05-10T01:32:40;2.42;;;0.80;;
78443;SDS011;67739;52.986;8.894;2023-05-10T01:35:17;2.15;;;0.57;;
78443;SDS011;67739;52.986;8.894;2023-05-10T01:40:37;2.75;;;0.90;;
78443;SDS011;67739;52.986;8.894;2023-05-10T01:43:11;0.90;;;0.30;;
78443;SDS011;67739;52.986;8.894;2023-05-10T01:45:50;2.70;;;0.93;;
78443;SDS011;67739;52.986;8.894;2023-05-10T01:48:24;1.58;;;0.70;;
78443;SDS011;67739;52.986;8.894;2023-05-10T01:50:52;2.25;;;0.77;;
78443;SDS011;67739;52.986;8.894;2023-05-10T01:53:19;1.58;;;0.63;;
78443;SDS011;67739;52.986;8.894;2023-05-10T01:55:47;2.25;;;0.85;;
78443;SDS011;67739;52.986;8.894;2023-05-10T01:58:21;1.35;;;0.30;;
78443;SDS011;67739;52.986;8.894;2023-05-10T02:00:52;2.67;;;0.43;;
78443;SDS011;67739;52.986;8.894;2023-05-10T02:03:20;4.70;;;0.43;;
78443;SDS011;67739;52.986;8.894;2023-05-10T02:05:48;2.53;;;0.45;;
78443;SDS011;67739;52.986;8.894;2023-05-10T02:08:15;1.85;;;0.55;;
78443;SDS011;67739;52.986;8.894;2023-05-10T02:10:44;2.10;;;0.47;;
78443;SDS011;67739;52.986;8.894;2023-05-10T02:13:11;2.40;;;0.82;;
78443;SDS011;67739;52.986;8.894;2023-05-10T02:15:38;1.75;;;0.40;;
78443;SDS011;67739;52.986;8.894;2023-05-10T02:18:06;2.50;;;0.75;;
78443;SDS011;67739;52.986;8.894;2023-05-10T02:20:34;1.80;;;0.50;;
78443;SDS011;67739;52.986;8.894;2023-05-10T02:23:01;1.40;;;0.40;;
78443;SDS011;67739;52.986;8.894;2023-05-10T02:25:28;2.00;;;0.30;;
78443;SDS011;67739;52.986;8.894;2023-05-10T02:27:56;6.28;;;0.60;;
78443;SDS011;67739;52.986;8.894;2023-05-10T02:30:23;2.13;;;0.75;;
78443;SDS011;67739;52.986;8.894;2023-05-10T02:32:49;2.22;;;0.65;;
78443;SDS011;67739;52.986;8.894;2023-05-10T02:35:16;3.47;;;0.93;;
78443;SDS011;67739;52.986;8.894;2023-05-10T02:37:42;1.95;;;0.55;;
78443;SDS011;67739;52.986;8.894;2023-05-10T02:40:08;3.10;;;0.80;;
78443;SDS011;67739;52.986;8.894;2023-05-10T02:42:37;2.28;;;0.55;;
78443;SDS011;67739;52.986;8.894;2023-05-10T02:45:07;2.15;;;0.40;;
78443;SDS011;67739;52.986;8.894;2023-05-10T02:47:36;2.22;;;0.43;;
78443;SDS011;67739;52.986;8.894;2023-05-10T02:50:02;2.28;;;0.68;;
78443;SDS011;67739;52.986;8.894;2023-05-10T02:52:29;0.88;;;0.28;;
78443;SDS011;67739;52.986;8.894;2023-05-10T02:55:02;1.98;;;0.47;;
78443;SDS011;67739;52.986;8.894;2023-05-10T02:57:31;1.20;;;0.57;;
78443;SDS011;67739;52.986;8.894;2023-05-10T02:59:58;2.28;;;0.70;;
78443;SDS011;67739;52.986;8.894;2023-05-10T03:02:25;1.67;;;1.02;;
78443;SDS011;67739;52.986;8.894;2023-05-10T03:04:51;2.60;;;0.80;;
78443;SDS011;67739;52.986;8.894;2023-05-10T03:07:16;1.70;;;0.47;;
78443;SDS011;67739;52.986;8.894;2023-05-10T03:09:44;1.92;;;0.45;;
78443;SDS011;67739;52.986;8.894;2023-05-10T03:15:20;2.42;;;0.77;;
78443;SDS011;67739;52.986;8.894;2023-05-10T03:20:35;2.22;;;0.60;;
78443;SDS011;67739;52.986;8.894;2023-05-10T03:25:45;2.28;;;0.65;;
78443;SDS011;67739;52.986;8.894;2023-05-10T03:28:13;1.65;;;0.45;;
78443;SDS011;67739;52.986;8.894;2023-05-10T03:30:40;1.38;;;0.50;;
78443;SDS011;67739;52.986;8.894;2023-05-10T03:33:08;3.20;;;0.75;;
78443;SDS011;67739;52.986;8.894;2023-05-10T03:35:33;3.75;;;0.80;;
78443;SDS011;67739;52.986;8.894;2023-05-10T03:37:59;4.32;;;1.05;;
78443;SDS011;67739;52.986;8.894;2023-05-10T03:40:25;4.00;;;0.90;;
78443;SDS011;67739;52.986;8.894;2023-05-10T03:42:51;1.40;;;0.60;;
78443;SDS011;67739;52.986;8.894;2023-05-10T03:45:16;2.63;;;1.00;;
78443;SDS011;67739;52.986;8.894;2023-05-10T03:47:42;3.85;;;1.27;;
78443;SDS011;67739;52.986;8.894;2023-05-10T03:50:07;1.83;;;0.65;;
78443;SDS011;67739;52.986;8.894;2023-05-10T03:52:33;3.30;;;1.23;;
78443;SDS011;67739;52.986;8.894;2023-05-10T03:54:58;3.13;;;0.73;;
78443;SDS011;67739;52.986;8.894;2023-05-10T03:57:23;2.17;;;0.68;;
78443;SDS011;67739;52.986;8.894;2023-05-10T03:59:49;2.63;;;1.00;;
78443;SDS011;67739;52.986;8.894;2023-05-10T04:02:15;2.75;;;1.10;;
78443;SDS011;67739;52.986;8.894;2023-05-10T04:04:40;4.10;;;1.30;;
78443;SDS011;67739;52.986;8.894;2023-05-10T04:07:05;4.32;;;0.95;;
78443;SDS011;67739;52.986;8.894;2023-05-10T04:09:31;3.45;;;1.50;;
78443;SDS011;67739;52.986;8.894;2023-05-10T04:11:56;2.05;;;0.40;;
78443;SDS011;67739;52.986;8.894;2023-05-10T04:14:21;3.13;;;0.98;;
78443;SDS011;67739;52.986;8.894;2023-05-10T04:16:47;1.75;;;0.65;;
78443;SDS011;67739;52.986;8.894;2023-05-10T04:19:12;1.70;;;0.63;;
78443;SDS011;67739;52.986;8.894;2023-05-10T04:21:37;2.35;;;1.00;;
78443;SDS011;67739;52.986;8.894;2023-05-10T04:24:03;2.33;;;0.57;;
78443;SDS011;67739;52.986;8.894;2023-05-10T04:26:28;1.15;;;0.45;;
78443;SDS011;67739;52.986;8.894;2023-05-10T04:28:54;2.85;;;1.25;;
78443;SDS011;67739;52.986;8.894;2023-05-10T04:31:19;5.85;;;1.15;;
78443;SDS011;67739;52.986;8.894;2023-05-10T04:33:45;2.00;;;0.85;;
78443;SDS011;67739;52.986;8.894;2023-05-10T04:36:10;2.10;;;0.68;;
78443;SDS011;67739;52.986;8.894;2023-05-10T04:38:35;3.05;;;1.38;;
78443;SDS011;67739;52.986;8.894;2023-05-10T04:41:04;1.40;;;0.43;;
78443;SDS011;67739;52.986;8.894;2023-05-10T04:43:31;2.92;;;0.70;;
78443;SDS011;67739;52.986;8.894;2023-05-10T04:45:56;2.78;;;0.82;;
78443;SDS011;67739;52.986;8.894;2023-05-10T04:48:22;3.22;;;1.00;;
78443;SDS011;67739;52.986;8.894;2023-05-10T04:50:47;2.80;;;0.95;;
78443;SDS011;67739;52.986;8.894;2023-05-10T04:53:13;3.72;;;0.93;;
78443;SDS011;67739;52.986;8.894;2023-05-10T04:55:38;2.50;;;1.08;;
78443;SDS011;67739;52.986;8.894;2023-05-10T04:58:04;3.05;;;0.80;;
78443;SDS011;67739;52.986;8.894;2023-05-10T05:00:29;3.47;;;1.10;;
78443;SDS011;67739;52.986;8.894;2023-05-10T05:02:54;4.00;;;0.88;;
78443;SDS011;67739;52.986;8.894;2023-05-10T05:05:20;3.30;;;1.30;;
78443;SDS011;67739;52.986;8.894;2023-05-10T05:07:45;4.18;;;1.20;;
78443;SDS011;67739;52.986;8.894;2023-05-10T05:10:11;2.50;;;0.80;;
78443;SDS011;67739;52.986;8.894;2023-05-10T05:12:36;4.82;;;1.13;;
78443;SDS011;67739;52.986;8.894;2023-05-10T05:15:01;3.60;;;1.10;;
78443;SDS011;67739;52.986;8.894;2023-05-10T05:17:27;3.97;;;1.08;;
78443;SDS011;67739;52.986;8.894;2023-05-10T05:19:55;2.38;;;1.02;;
78443;SDS011;67739;52.986;8.894;2023-05-10T05:22:20;2.08;;;0.65;;
78443;SDS011;67739;52.986;8.894;2023-05-10T05:24:52;4.88;;;1.63;;
78443;SDS011;67739;52.986;8.894;2023-05-10T05:27:17;3.78;;;1.08;;
78443;SDS011;67739;52.986;8.894;2023-05-10T05:29:43;4.13;;;1.15;;
78443;SDS011;67739;52.986;8.894;2023-05-10T05:32:08;2.85;;;1.08;;
78443;SDS011;67739;52.986;8.894;2023-05-10T05:34:34;2.42;;;0.93;;
78443;SDS011;67739;52.986;8.894;2023-05-10T05:36:59;2.08;;;0.60;;
78443;SDS011;67739;52.986;8.894;2023-05-10T05:39:24;4.18;;;1.58;;
78443;SDS011;67739;52.986;8.894;2023-05-10T05:41:50;2.33;;;0.70;;
78443;SDS011;67739;52.986;8.894;2023-05-10T05:44:15;3.47;;;1.25;;
78443;SDS011;67739;52.986;8.894;2023-05-10T05:46:40;1.55;;;0.60;;
78443;SDS011;67739;52.986;8.894;2023-05-10T05:49:05;1.63;;;0.63;;
78443;SDS011;67739;52.986;8.894;2023-05-10T05:51:31;3.72;;;1.48;;
78443;SDS011;67739;52.986;8.894;2023-05-10T05:53:56;3.75;;;1.50;;
78443;SDS011;67739;52.986;8.894;2023-05-10T05:56:21;2.17;;;0.82;;
78443;SDS011;67739;52.986;8.894;2023-05-10T05:58:49;4.50;;;1.15;;
78443;SDS011;67739;52.986;8.894;2023-05-10T06:01:15;3.20;;;1.52;;
78443;SDS011;67739;52.986;8.894;2023-05-10T06:03:41;3.03;;;0.80;;
78443;SDS011;67739;52.986;8.894;2023-05-10T06:06:06;5.15;;;1.83;;
78443;SDS011;67739;52.986;8.894;2023-05-10T06:08:32;3.95;;;1.35;;
78443;SDS011;67739;52.986;8.894;2023-05-10T06:10:58;3.55;;;1.40;;
78443;SDS011;67739;52.986;8.894;2023-05-10T06:13:24;2.33;;;0.60;;
78443;SDS011;67739;52.986;8.894;2023-05-10T06:15:49;4.15;;;1.80;;
78443;SDS011;67739;52.986;8.894;2023-05-10T06:18:15;2.80;;;1.20;;
78443;SDS011;67739;52.986;8.894;2023-05-10T06:20:41;3.13;;;1.20;;
78443;SDS011;67739;52.986;8.894;2023-05-10T06:23:07;3.80;;;1.35;;
78443;SDS011;67739;52.986;8.894;2023-05-10T06:25:32;3.83;;;1.63;;
78443;SDS011;67739;52.986;8.894;2023-05-10T06:27:57;6.03;;;1.85;;
78443;SDS011;67739;52.986;8.894;2023-05-10T06:30:23;4.60;;;1.77;;
78443;SDS011;67739;52.986;8.894;2023-05-10T06:32:52;4.57;;;1.73;;
78443;SDS011;67739;52.986;8.894;2023-05-10T06:35:18;2.53;;;0.90;;
78443;SDS011;67739;52.986;8.894;2023-05-10T06:37:43;5.63;;;2.10;;
78443;SDS011;67739;52.986;8.894;2023-05-10T06:40:09;3.95;;;1.52;;
78443;SDS011;67739;52.986;8.894;2023-05-10T06:42:34;4.43;;;1.65;;
78443;SDS011;67739;52.986;8.894;2023-05-10T06:45:00;5.00;;;1.30;;
78443;SDS011;67739;52.986;8.894;2023-05-10T06:47:25;3.75;;;1.35;;
78443;SDS011;67739;52.986;8.894;2023-05-10T06:49:50;4.60;;;1.33;;
78443;SDS011;67739;52.986;8.894;2023-05-10T06:52:16;5.60;;;2.22;;
78443;SDS011;67739;52.986;8.894;2023-05-10T06:54:41;4.05;;;1.60;;
78443;SDS011;67739;52.986;8.894;2023-05-10T06:57:07;3.33;;;1.35;;
78443;SDS011;67739;52.986;8.894;2023-05-10T06:59:32;3.97;;;1.10;;
78443;SDS011;67739;52.986;8.894;2023-05-10T07:01:57;4.18;;;1.58;;
78443;SDS011;67739;52.986;8.894;2023-05-10T07:04:23;3.47;;;1.65;;
78443;SDS011;67739;52.986;8.894;2023-05-10T07:06:48;4.50;;;1.88;;
78443;SDS011;67739;52.986;8.894;2023-05-10T07:09:14;3.40;;;1.63;;
78443;SDS011;67739;52.986;8.894;2023-05-10T07:11:40;5.07;;;2.08;;
78443;SDS011;67739;52.986;8.894;2023-05-10T07:14:06;5.47;;;1.85;;
78443;SDS011;67739;52.986;8.894;2023-05-10T07:16:31;3.10;;;1.50;;
78443;SDS011;67739;52.986;8.894;2023-05-10T07:18:56;2.90;;;1.52;;
78443;SDS011;67739;52.986;8.894;2023-05-10T07:21:22;5.03;;;1.65;;
78443;SDS011;67739;52.986;8.894;2023-05-10T07:23:49;2.63;;;1.42;;
78443;SDS011;67739;52.986;8.894;2023-05-10T07:26:14;5.10;;;1.65;;
78443;SDS011;67739;52.986;8.894;2023-05-10T07:28:41;4.88;;;1.50;;
78443;SDS011;67739;52.986;8.894;2023-05-10T07:31:07;2.72;;;1.23;;
78443;SDS011;67739;52.986;8.894;2023-05-10T07:33:32;4.82;;;1.83;;
78443;SDS011;67739;52.986;8.894;2023-05-10T07:35:57;4.43;;;1.52;;
78443;SDS011;67739;52.986;8.894;2023-05-10T07:38:22;5.13;;;1.58;;
78443;SDS011;67739;52.986;8.894;2023-05-10T07:40:48;3.80;;;1.50;;
78443;SDS011;67739;52.986;8.894;2023-05-10T07:43:13;3.63;;;1.35;;
78443;SDS011;67739;52.986;8.894;2023-05-10T07:45:38;4.05;;;1.40;;
78443;SDS011;67739;52.986;8.894;2023-05-10T07:48:04;3.05;;;0.85;;
78443;SDS011;67739;52.986;8.894;2023-05-10T07:50:29;2.47;;;0.77;;
78443;SDS011;67739;52.986;8.894;2023-05-10T07:52:55;1.88;;;0.60;;
78443;SDS011;67739;52.986;8.894;2023-05-10T07:55:20;4.68;;;1.58;;
78443;SDS011;67739;52.986;8.894;2023-05-10T07:57:48;4.60;;;2.05;;
78443;SDS011;67739;52.986;8.894;2023-05-10T08:00:16;3.33;;;1.20;;
78443;SDS011;67739;52.986;8.894;2023-05-10T08:02:42;2.90;;;1.73;;
78443;SDS011;67739;52.986;8.894;2023-05-10T08:05:08;5.22;;;1.63;;
78443;SDS011;67739;52.986;8.894;2023-05-10T08:07:33;4.10;;;1.60;;
78443;SDS011;67739;52.986;8.894;2023-05-10T08:09:59;3.70;;;1.02;;
78443;SDS011;67739;52.986;8.894;2023-05-10T08:12:25;3.15;;;0.70;;
78443;SDS011;67739;52.986;8.894;2023-05-10T08:14:50;2.28;;;0.38;;
78443;SDS011;67739;52.986;8.894;2023-05-10T08:17:15;1.70;;;0.50;;
78443;SDS011;67739;52.986;8.894;2023-05-10T08:19:41;1.13;;;0.30;;
78443;SDS011;67739;52.986;8.894;2023-05-10T08:22:06;2.35;;;0.82;;
78443;SDS011;67739;52.986;8.894;2023-05-10T08:24:31;2.40;;;0.75;;
78443;SDS011;67739;52.986;8.894;2023-05-10T08:26:57;2.60;;;0.77;;
78443;SDS011;67739;52.986;8.894;2023-05-10T08:29:22;2.63;;;0.68;;
78443;SDS011;67739;52.986;8.894;2023-05-10T08:31:48;1.90;;;0.45;;
78443;SDS011;67739;52.986;8.894;2023-05-10T08:34:13;2.83;;;0.60;;
78443;SDS011;67739;52.986;8.894;2023-05-10T08:36:38;1.70;;;0.40;;
78443;SDS011;67739;52.986;8.894;2023-05-10T08:39:04;1.95;;;0.28;;
78443;SDS011;67739;52.986;8.894;2023-05-10T08:41:29;3.35;;;0.60;;
78443;SDS011;67739;52.986;8.894;2023-05-10T08:43:58;1.45;;;0.20;;
78443;SDS011;67739;52.986;8.894;2023-05-10T08:46:25;2.25;;;0.40;;
78443;SDS011;67739;52.986;8.894;2023-05-10T08:48:51;2.90;;;0.77;;
78443;SDS011;67739;52.986;8.894;2023-05-10T08:51:19;1.50;;;0.25;;
78443;SDS011;67739;52.986;8.894;2023-05-10T08:53:48;1.73;;;0.40;;
78443;SDS011;67739;52.986;8.894;2023-05-10T08:56:15;1.80;;;0.55;;
78443;SDS011;67739;52.986;8.894;2023-05-10T08:58:40;1.60;;;0.20;;
78443;SDS011;67739;52.986;8.894;2023-05-10T09:01:06;1.67;;;0.25;;
78443;SDS011;67739;52.986;8.894;2023-05-10T09:03:32;0.68;;;0.10;;
78443;SDS011;67739;52.986;8.894;2023-05-10T09:05:58;1.40;;;0.45;;
78443;SDS011;67739;52.986;8.894;2023-05-10T09:08:24;1.88;;;0.32;;
78443;SDS011;67739;52.986;8.894;2023-05-10T09:10:53;2.20;;;0.47;;
78443;SDS011;67739;52.986;8.894;2023-05-10T09:13:19;1.83;;;0.43;;
78443;SDS011;67739;52.986;8.894;2023-05-10T09:15:46;1.27;;;0.30;;
78443;SDS011;67739;52.986;8.894;2023-05-10T09:18:13;2.17;;;0.45;;
78443;SDS011;67739;52.986;8.894;2023-05-10T09:20:38;2.63;;;0.40;;
78443;SDS011;67739;52.986;8.894;2023-05-10T09:23:04;1.85;;;0.40;;
78443;SDS011;67739;52.986;8.894;2023-05-10T09:25:30;1.77;;;0.32;;
78443;SDS011;67739;52.986;8.894;2023-05-10T09:27:58;2.10;;;0.32;;
78443;SDS011;67739;52.986;8.894;2023-05-10T09:30:27;1.98;;;0.50;;
78443;SDS011;67739;52.986;8.894;2023-05-10T09:32:55;2.60;;;0.70;;
78443;SDS011;67739;52.986;8.894;2023-05-10T09:35:22;3.08;;;0.55;;
78443;SDS011;67739;52.986;8.894;2023-05-10T09:37:49;2.25;;;0.38;;
78443;SDS011;67739;52.986;8.894;2023-05-10T09:40:25;2.35;;;0.38;;
78443;SDS011;67739;52.986;8.894;2023-05-10T09:42:59;3.10;;;0.63;;
78443;SDS011;67739;52.986;8.894;2023-05-10T09:45:31;2.08;;;0.30;;
78443;SDS011;67739;52.986;8.894;2023-05-10T09:47:58;2.30;;;0.28;;
78443;SDS011;67739;52.986;8.894;2023-05-10T09:50:25;2.60;;;0.52;;
78443;SDS011;67739;52.986;8.894;2023-05-10T09:53:00;1.70;;;0.45;;
78443;SDS011;67739;52.986;8.894;2023-05-10T09:55:43;1.65;;;0.43;;
78443;SDS011;67739;52.986;8.894;2023-05-10T09:58:11;1.20;;;0.35;;
78443;SDS011;67739;52.986;8.894;2023-05-10T10:00:37;2.75;;;0.52;;
78443;SDS011;67739;52.986;8.894;2023-05-10T10:03:13;2.30;;;0.52;;
78443;SDS011;67739;52.986;8.894;2023-05-10T10:05:42;3.10;;;0.80;;
78443;SDS011;67739;52.986;8.894;2023-05-10T10:08:09;1.88;;;0.35;;
78443;SDS011;67739;52.986;8.894;2023-05-10T10:10:35;3.80;;;0.40;;
78443;SDS011;67739;52.986;8.894;2023-05-10T10:13:00;1.30;;;0.20;;
78443;SDS011;67739;52.986;8.894;2023-05-10T10:15:26;2.60;;;0.45;;
78443;SDS011;67739;52.986;8.894;2023-05-10T10:17:52;2.53;;;0.43;;
78443;SDS011;67739;52.986;8.894;2023-05-10T10:20:18;2.53;;;0.73;;
78443;SDS011;67739;52.986;8.894;2023-05-10T10:22:45;1.10;;;0.30;;
78443;SDS011;67739;52.986;8.894;2023-05-10T10:25:12;3.30;;;0.30;;
78443;SDS011;67739;52.986;8.894;2023-05-10T10:33:01;1.30;;;0.10;;
78443;SDS011;67739;52.986;8.894;2023-05-10T10:35:43;1.27;;;0.17;;
78443;SDS011;67739;52.986;8.894;2023-05-10T10:38:12;1.38;;;0.40;;
78443;SDS011;67739;52.986;8.894;2023-05-10T10:40:37;1.83;;;0.22;;
78443;SDS011;67739;52.986;8.894;2023-05-10T10:48:39;1.05;;;0.20;;
78443;SDS011;67739;52.986;8.894;2023-05-10T10:51:06;2.45;;;0.50;;
78443;SDS011;67739;52.986;8.894;2023-05-10T10:53:31;1.92;;;0.30;;
78443;SDS011;67739;52.986;8.894;2023-05-10T10:56:15;1.63;;;0.38;;
78443;SDS011;67739;52.986;8.894;2023-05-10T10:58:49;1.05;;;0.25;;
78443;SDS011;67739;52.986;8.894;2023-05-10T11:01:18;2.42;;;0.30;;
78443;SDS011;67739;52.986;8.894;2023-05-10T11:04:16;1.40;;;0.20;;
78443;SDS011;67739;52.986;8.894;2023-05-10T11:06:42;1.75;;;0.38;;
78443;SDS011;67739;52.986;8.894;2023-05-10T11:09:11;1.50;;;0.28;;
78443;SDS011;67739;52.986;8.894;2023-05-10T11:11:52;1.77;;;0.22;;
78443;SDS011;67739;52.986;8.894;2023-05-10T11:14:23;1.95;;;0.38;;
78443;SDS011;67739;52.986;8.894;2023-05-10T11:16:48;1.23;;;0.20;;
78443;SDS011;67739;52.986;8.894;2023-05-10T11:19:15;2.10;;;0.38;;
78443;SDS011;67739;52.986;8.894;2023-05-10T11:24:28;2.47;;;0.30;;
78443;SDS011;67739;52.986;8.894;2023-05-10T11:26:54;1.35;;;0.20;;
78443;SDS011;67739;52.986;8.894;2023-05-10T11:29:20;2.60;;;0.30;;
78443;SDS011;67739;52.986;8.894;2023-05-10T11:31:45;1.65;;;0.30;;
78443;SDS011;67739;52.986;8.894;2023-05-10T11:34:22;1.50;;;0.25;;
78443;SDS011;67739;52.986;8.894;2023-05-10T11:36:52;2.58;;;0.40;;
78443;SDS011;67739;52.986;8.894;2023-05-10T11:39:18;1.20;;;0.17;;
78443;SDS011;67739;52.986;8.894;2023-05-10T11:41:46;1.48;;;0.20;;
78443;SDS011;67739;52.986;8.894;2023-05-10T11:44:13;1.67;;;0.40;;
78443;SDS011;67739;52.986;8.894;2023-05-10T11:46:38;1.75;;;0.10;;
78443;SDS011;67739;52.986;8.894;2023-05-10T11:49:03;0.85;;;0.15;;
78443;SDS011;67739;52.986;8.894;2023-05-10T11:51:34;1.33;;;0.17;;
78443;SDS011;67739;52.986;8.894;2023-05-10T11:54:01;1.13;;;0.20;;
78443;SDS011;67739;52.986;8.894;2023-05-10T11:56:32;0.82;;;0.20;;
78443;SDS011;67739;52.986;8.894;2023-05-10T11:58:57;0.90;;;0.10;;
78443;SDS011;67739;52.986;8.894;2023-05-10T12:01:26;0.38;;;0.08;;
78443;SDS011;67739;52.986;8.894;2023-05-10T12:03:53;0.88;;;0.20;;
78443;SDS011;67739;52.986;8.894;2023-05-10T12:06:25;0.60;;;0.00;;
78443;SDS011;67739;52.986;8.894;2023-05-10T12:08:51;0.10;;;0.00;;
78443;SDS011;67739;52.986;8.894;2023-05-10T12:11:20;0.45;;;0.10;;
78443;SDS011;67739;52.986;8.894;2023-05-10T12:13:49;0.17;;;0.00;;
78443;SDS011;67739;52.986;8.894;2023-05-10T12:16:16;0.30;;;0.05;;
78443;SDS011;67739;52.986;8.894;2023-05-10T12:18:43;0.30;;;0.10;;
78443;SDS011;67739;52.986;8.894;2023-05-10T12:21:10;0.38;;;0.03;;
78443;SDS011;67739;52.986;8.894;2023-05-10T12:23:36;0.75;;;0.10;;
78443;SDS011;67739;52.986;8.894;2023-05-10T12:26:03;0.10;;;0.00;;
78443;SDS011;67739;52.986;8.894;2023-05-10T12:28:32;0.45;;;0.00;;
78443;SDS011;67739;52.986;8.894;2023-05-10T12:31:01;0.93;;;0.10;;
78443;SDS011;67739;52.986;8.894;2023-05-10T12:33:27;0.40;;;0.10;;
78443;SDS011;67739;52.986;8.894;2023-05-10T12:36:08;0.77;;;0.10;;
78443;SDS011;67739;52.986;8.894;2023-05-10T12:38:37;1.80;;;0.22;;
78443;SDS011;67739;52.986;8.894;2023-05-10T12:41:09;0.40;;;0.10;;
78443;SDS011;67739;52.986;8.894;2023-05-10T12:43:36;1.77;;;0.25;;
78443;SDS011;67739;52.986;8.894;2023-05-10T12:46:08;0.65;;;0.20;;
78443;SDS011;67739;52.986;8.894;2023-05-10T12:48:42;1.90;;;0.28;;
78443;SDS011;67739;52.986;8.894;2023-05-10T12:51:08;1.23;;;0.20;;
78443;SDS011;67739;52.986;8.894;2023-05-10T12:53:36;1.08;;;0.40;;
78443;SDS011;67739;52.986;8.894;2023-05-10T12:56:02;0.80;;;0.13;;
78443;SDS011;67739;52.986;8.894;2023-05-10T12:58:28;0.75;;;0.20;;
78443;SDS011;67739;52.986;8.894;2023-05-10T13:00:53;0.50;;;0.10;;
78443;SDS011;67739;52.986;8.894;2023-05-10T13:03:18;0.65;;;0.20;;
78443;SDS011;67739;52.986;8.894;2023-05-10T13:05:44;1.17;;;0.22;;
78443;SDS011;67739;52.986;8.894;2023-05-10T13:08:09;0.47;;;0.10;;
78443;SDS011;67739;52.986;8.894;2023-05-10T13:10:35;0.38;;;0.10;;
78443;SDS011;67739;52.986;8.894;2023-05-10T13:13:00;0.85;;;0.10;;
78443;SDS011;67739;52.986;8.894;2023-05-10T13:15:26;0.20;;;0.10;;
78443;SDS011;67739;52.986;8.894;2023-05-10T13:17:52;0.13;;;0.00;;
78443;SDS011;67739;52.986;8.894;2023-05-10T13:20:18;0.20;;;0.00;;
78443;SDS011;67739;52.986;8.894;2023-05-10T13:22:44;0.22;;;0.08;;
78443;SDS011;67739;52.986;8.894;2023-05-10T13:25:10;0.00;;;0.00;;
78443;SDS011;67739;52.986;8.894;2023-05-10T13:27:36;0.75;;;0.00;;
78443;SDS011;67739;52.986;8.894;2023-05-10T13:30:02;0.43;;;0.00;;
78443;SDS011;67739;52.986;8.894;2023-05-10T13:32:28;0.00;;;0.00;;
78443;SDS011;67739;52.986;8.894;2023-05-10T13:34:54;0.40;;;0.10;;
78443;SDS011;67739;52.986;8.894;2023-05-10T13:37:20;0.10;;;0.00;;
78443;SDS011;67739;52.986;8.894;2023-05-10T13:39:45;0.00;;;0.00;;
78443;SDS011;67739;52.986;8.894;2023-05-10T13:42:10;0.50;;;0.10;;
78443;SDS011;67739;52.986;8.894;2023-05-10T13:44:36;0.10;;;0.00;;
78443;SDS011;67739;52.986;8.894;2023-05-10T13:47:03;0.00;;;0.00;;
78443;SDS011;67739;52.986;8.894;2023-05-10T13:49:29;0.32;;;0.00;;
78443;SDS011;67739;52.986;8.894;2023-05-10T13:51:54;0.40;;;0.05;;
78443;SDS011;67739;52.986;8.894;2023-05-10T13:54:20;0.50;;;0.15;;
78443;SDS011;67739;52.986;8.894;2023-05-10T13:56:47;0.40;;;0.05;;
78443;SDS011;67739;52.986;8.894;2023-05-10T13:59:13;1.35;;;0.20;;
78443;SDS011;67739;52.986;8.894;2023-05-10T14:01:41;1.15;;;0.20;;
78443;SDS011;67739;52.986;8.894;2023-05-10T14:04:07;1.00;;;0.20;;
78443;SDS011;67739;52.986;8.894;2023-05-10T14:06:35;0.47;;;0.05;;
78443;SDS011;67739;52.986;8.894;2023-05-10T14:09:03;2.45;;;0.30;;
78443;SDS011;67739;52.986;8.894;2023-05-10T14:11:28;0.70;;;0.10;;
78443;SDS011;67739;52.986;8.894;2023-05-10T14:13:54;0.38;;;0.10;;
78443;SDS011;67739;52.986;8.894;2023-05-10T14:16:19;0.28;;;0.08;;
78443;SDS011;67739;52.986;8.894;2023-05-10T14:18:45;1.80;;;0.50;;
78443;SDS011;67739;52.986;8.894;2023-05-10T14:21:11;0.70;;;0.10;;
78443;SDS011;67739;52.986;8.894;2023-05-10T14:23:37;1.30;;;0.15;;
78443;SDS011;67739;52.986;8.894;2023-05-10T14:26:02;1.50;;;0.57;;
78443;SDS011;67739;52.986;8.894;2023-05-10T14:28:28;1.73;;;0.30;;
78443;SDS011;67739;52.986;8.894;2023-05-10T14:30:53;0.22;;;0.10;;
78443;SDS011;67739;52.986;8.894;2023-05-10T14:33:18;0.93;;;0.20;;
78443;SDS011;67739;52.986;8.894;2023-05-10T14:35:44;1.20;;;0.30;;
78443;SDS011;67739;52.986;8.894;2023-05-10T14:38:10;0.82;;;0.20;;
78443;SDS011;67739;52.986;8.894;2023-05-10T14:40:35;1.13;;;0.32;;
78443;SDS011;67739;52.986;8.894;2023-05-10T14:43:01;1.85;;;0.10;;
78443;SDS011;67739;52.986;8.894;2023-05-10T14:45:26;0.63;;;0.22;;
78443;SDS011;67739;52.986;8.894;2023-05-10T14:47:51;0.73;;;0.10;;
78443;SDS011;67739;52.986;8.894;2023-05-10T14:50:17;0.80;;;0.17;;
78443;SDS011;67739;52.986;8.894;2023-05-10T14:52:43;1.23;;;0.30;;
78443;SDS011;67739;52.986;8.894;2023-05-10T14:55:09;1.02;;;0.30;;
78443;SDS011;67739;52.986;8.894;2023-05-10T14:57:34;0.70;;;0.10;;
78443;SDS011;67739;52.986;8.894;2023-05-10T15:00:00;0.30;;;0.05;;
78443;SDS011;67739;52.986;8.894;2023-05-10T15:02:25;0.82;;;0.20;;
78443;SDS011;67739;52.986;8.894;2023-05-10T15:04:50;0.95;;;0.25;;
78443;SDS011;67739;52.986;8.894;2023-05-10T15:07:16;0.30;;;0.10;;
78443;SDS011;67739;52.986;8.894;2023-05-10T15:09:43;1.63;;;0.20;;
78443;SDS011;67739;52.986;8.894;2023-05-10T15:12:09;0.93;;;0.15;;
78443;SDS011;67739;52.986;8.894;2023-05-10T15:14:34;0.90;;;0.20;;
78443;SDS011;67739;52.986;8.894;2023-05-10T15:17:01;0.93;;;0.10;;
78443;SDS011;67739;52.986;8.894;2023-05-10T15:19:26;0.80;;;0.10;;